Time;durP1;ratioP1;P1;durP2;ratioP2;P2;SDS_P1;SDS_P2;PMS_P1;PMS_P2;Temp;Humidity;BMP_temperature;BMP_pressure;BME280_temperature;BME280_humidity;BME280_pressure;Samples;Min_cycle;Max_cycle;Signal;HPM_P1;HPM_P2
2022/03/29 00:01:01;;;;;;;12.68;11.48;;;;;;;12.43;44.36;95094.09;5139997;27;20512;-64
2022/03/29 00:03:28;;;;;;;11.88;10.70;;;;;;;12.42;44.09;95089.72;5139586;27;20614;-64
2022/03/29 00:05:55;;;;;;;14.98;11.65;;;;;;;12.41;44.15;95087.31;5139446;27;20515;-64
2022/03/29 00:08:21;;;;;;;11.50;10.48;;;;;;;12.40;44.45;95088.50;5121640;27;20321;-64
2022/03/29 00:10:50;;;;;;;13.60;12.15;;;;;;;12.39;44.38;95079.41;5121791;27;20203;-64
2022/03/29 00:13:17;;;;;;;13.55;11.23;;;;;;;12.38;44.45;95069.50;5139676;27;20214;-64
2022/03/29 00:19:05;;;;;;;13.27;11.35;;;;;;;12.29;45.03;95069.69;5121396;27;20183;-64
2022/03/29 00:21:32;;;;;;;13.57;11.43;;;;;;;12.31;44.78;95055.53;5139370;27;20222;-64
2022/03/29 00:23:59;;;;;;;13.15;11.55;;;;;;;12.23;45.41;95062.84;5139049;27;20193;-64
2022/03/29 00:26:27;;;;;;;14.05;11.77;;;;;;;12.13;45.85;95057.09;5139569;27;20220;-64
2022/03/29 00:28:54;;;;;;;13.13;11.32;;;;;;;12.07;45.74;95058.56;5139068;27;20227;-64
2022/03/29 00:31:21;;;;;;;12.68;11.38;;;;;;;11.97;46.02;95051.66;5139323;27;20262;-64
2022/03/29 00:33:48;;;;;;;12.90;11.60;;;;;;;11.93;46.61;95062.63;5120853;27;20222;-64
2022/03/29 00:36:15;;;;;;;13.90;11.45;;;;;;;11.95;46.50;95049.25;5139191;27;20294;-63
2022/03/29 00:38:42;;;;;;;13.18;11.90;;;;;;;11.98;46.16;95045.78;5138383;27;20210;-63
2022/03/29 00:41:09;;;;;;;12.32;11.02;;;;;;;11.99;46.05;95047.34;5137981;27;20226;-63
2022/03/29 00:43:37;;;;;;;12.57;11.27;;;;;;;12.00;46.18;95050.91;5138290;27;20201;-63
2022/03/29 00:46:04;;;;;;;13.38;12.10;;;;;;;11.97;46.59;95052.44;5138992;27;20195;-63
2022/03/29 00:48:31;;;;;;;13.45;11.60;;;;;;;11.94;47.02;95044.88;5138419;27;20239;-64
2022/03/29 00:50:58;;;;;;;12.10;10.38;;;;;;;11.98;46.01;95047.72;5138039;27;20208;-64
2022/03/29 00:53:25;;;;;;;12.88;11.68;;;;;;;12.07;45.74;95037.25;5138468;27;20246;-64
2022/03/29 00:55:54;;;;;;;12.27;11.07;;;;;;;12.06;46.03;95032.09;5138857;27;20194;-65
2022/03/29 00:58:21;;;;;;;13.25;11.88;;;;;;;12.01;46.50;95033.97;5138844;27;20183;-64
2022/03/29 01:00:49;;;;;;;13.73;11.63;;;;;;;11.94;45.93;95033.81;5138211;27;20195;-64
2022/03/29 01:03:16;;;;;;;11.90;10.80;;;;;;;11.97;45.56;95024.78;5138431;27;20183;-64
2022/03/29 01:05:43;;;;;;;12.35;11.25;;;;;;;11.97;46.15;95032.28;5137849;27;20214;-64
2022/03/29 01:08:10;;;;;;;12.80;11.48;;;;;;;11.91;45.98;95020.75;5149230;27;20268;-64
2022/03/29 01:10:37;;;;;;;11.43;10.32;;;;;;;11.91;45.32;95012.44;5159121;27;20671;-64
2022/03/29 01:13:06;;;;;;;14.23;10.75;;;;;;;11.92;45.68;95016.00;5140859;27;20218;-64
2022/03/29 01:15:36;;;;;;;11.55;10.25;;;;;;;11.86;45.91;95007.19;5141202;27;20186;-65
2022/03/29 01:18:05;;;;;;;11.80;10.70;;;;;;;11.81;45.83;95013.00;5140989;27;20190;-64
2022/03/29 01:20:33;;;;;;;11.23;10.02;;;;;;;11.80;45.20;94992.84;5141268;27;20232;-64
2022/03/29 01:23:02;;;;;;;10.57;9.30;;;;;;;11.88;44.72;95001.31;5141082;27;20225;-64
2022/03/29 01:25:34;;;;;;;11.32;10.18;;;;;;;11.80;45.27;94994.78;5140987;27;20202;-64
2022/03/29 01:28:03;;;;;;;11.32;9.35;;;;;;;11.82;44.95;94984.97;5140743;27;20194;-64
2022/03/29 01:30:30;;;;;;;10.77;9.77;;;;;;;11.87;45.07;94991.41;5141159;27;20191;-64
2022/03/29 01:32:58;;;;;;;10.23;9.20;;;;;;;11.88;44.50;94987.50;5158687;27;20541;-64
2022/03/29 01:35:25;;;;;;;11.18;10.07;;;;;;;11.87;44.48;94980.34;5158852;27;20265;-63
2022/03/29 01:37:53;;;;;;;12.60;9.82;;;;;;;11.89;44.37;94978.84;5158771;27;20217;-64
2022/03/29 01:40:23;;;;;;;12.98;9.98;;;;;;;11.90;44.49;94976.88;5158980;27;20210;-64
2022/03/29 01:42:51;;;;;;;11.65;10.45;;;;;;;11.80;46.16;94975.44;5140770;27;20182;-64
2022/03/29 01:45:19;;;;;;;10.93;9.88;;;;;;;11.55;46.22;94970.22;5140485;27;20194;-64
2022/03/29 01:47:46;;;;;;;10.85;9.85;;;;;;;11.39;46.40;94969.44;5158588;27;20221;-64
2022/03/29 01:50:14;;;;;;;11.63;10.48;;;;;;;11.26;47.69;94970.75;5158303;27;20510;-64
2022/03/29 01:52:45;;;;;;;13.32;11.10;;;;;;;11.08;47.66;94973.09;5139894;27;20281;-64
2022/03/29 01:55:13;;;;;;;13.35;10.45;;;;;;;11.06;47.29;94967.91;5158165;27;20171;-65
2022/03/29 01:57:41;;;;;;;11.75;10.55;;;;;;;11.02;47.54;94960.72;5158332;27;20178;-65
2022/03/29 02:02:57;;;;;;;13.02;10.48;;;;;;;10.76;48.38;94958.50;5139786;27;20191;-64
2022/03/29 02:05:25;;;;;;;12.25;10.70;;;;;;;10.75;48.28;94952.19;5140137;27;20218;-64
2022/03/29 02:07:51;;;;;;;12.02;10.82;;;;;;;10.80;48.51;94946.41;5157887;27;20238;-64
2022/03/29 02:10:19;;;;;;;12.27;11.07;;;;;;;10.77;48.38;94954.59;5140687;27;20202;-64
2022/03/29 02:12:49;;;;;;;12.00;10.90;;;;;;;10.81;48.31;94942.47;5140207;27;20214;-64
2022/03/29 02:15:16;;;;;;;11.88;10.68;;;;;;;10.83;48.20;94942.13;5139415;27;20202;-65
2022/03/29 02:17:44;;;;;;;11.95;10.85;;;;;;;10.77;49.17;94935.28;5157888;27;20192;-65
2022/03/29 02:20:13;;;;;;;11.82;10.75;;;;;;;10.70;49.11;94935.91;5140360;27;20194;-64
2022/03/29 02:22:40;;;;;;;12.52;11.23;;;;;;;10.72;48.71;94930.84;5139633;27;20190;-66
2022/03/29 02:25:10;;;;;;;12.52;11.23;;;;;;;10.69;49.10;94933.50;5157481;27;20189;-64
2022/03/29 02:27:38;;;;;;;14.00;12.25;;;;;;;10.58;49.21;94942.31;5157667;27;20193;-65
2022/03/29 02:30:07;;;;;;;13.82;12.43;;;;;;;10.54;49.14;94921.31;5157780;27;20183;-64
2022/03/29 02:32:34;;;;;;;14.13;11.73;;;;;;;10.49;49.74;94918.81;5139401;27;20578;-65
2022/03/29 02:35:01;;;;;;;12.30;11.15;;;;;;;10.42;50.04;94921.41;5139109;27;20219;-64
2022/03/29 02:37:28;;;;;;;13.00;11.70;;;;;;;10.29;49.85;94926.22;5139573;27;20266;-64
2022/03/29 02:39:55;;;;;;;12.65;11.32;;;;;;;10.36;49.19;94909.84;5139439;27;20472;-64
2022/03/29 02:42:22;;;;;;;13.60;10.77;;;;;;;10.51;49.13;94920.06;5157604;27;20183;-64
2022/03/29 02:44:49;;;;;;;13.35;12.10;;;;;;;10.42;49.28;94918.63;5157561;27;20255;-64
2022/03/29 02:47:17;;;;;;;12.95;11.65;;;;;;;10.31;50.21;94916.44;5157765;27;20214;-64
2022/03/29 02:49:44;;;;;;;14.35;12.45;;;;;;;10.24;50.55;94926.41;5139187;27;20198;-65
2022/03/29 02:52:11;;;;;;;17.10;13.10;;;;;;;10.19;50.63;94918.41;5157168;27;20174;-66
2022/03/29 02:54:38;;;;;;;15.70;12.85;;;;;;;10.26;52.07;94918.63;5139220;27;20249;-66
2022/03/29 02:57:05;;;;;;;13.70;12.30;;;;;;;10.23;51.06;94928.38;5138949;27;20190;-65
2022/03/29 02:59:32;;;;;;;14.27;12.02;;;;;;;10.13;51.65;94923.41;5157381;27;20202;-66
2022/03/29 03:01:59;;;;;;;14.88;13.20;;;;;;;10.03;51.71;94919.22;5139050;27;20191;-64
2022/03/29 03:04:27;;;;;;;14.10;12.60;;;;;;;9.95;51.79;94919.34;5156920;27;20190;-64
2022/03/29 03:06:54;;;;;;;14.00;12.60;;;;;;;9.92;52.39;94925.59;5139309;27;20200;-64
2022/03/29 03:09:21;;;;;;;13.88;12.57;;;;;;;9.84;52.80;94928.16;5135235;27;20235;-65
2022/03/29 03:11:48;;;;;;;14.45;12.15;;;;;;;9.82;52.88;94915.88;5135280;27;20230;-65
2022/03/29 03:14:15;;;;;;;14.95;12.40;;;;;;;9.76;53.07;94909.81;5135698;27;20199;-65
2022/03/29 03:16:42;;;;;;;16.27;14.52;;;;;;;9.68;52.80;94918.22;5135349;27;20195;-65
2022/03/29 03:19:09;;;;;;;14.93;13.43;;;;;;;9.69;53.13;94897.78;5135557;27;20199;-65
2022/03/29 03:21:38;;;;;;;16.13;12.95;;;;;;;9.83;53.47;94909.19;5134941;27;20635;-65
2022/03/29 03:24:05;;;;;;;17.23;12.65;;;;;;;9.81;52.90;94914.28;5135870;27;20211;-65
2022/03/29 03:26:32;;;;;;;14.13;12.85;;;;;;;9.75;53.10;94908.22;5134979;28;20213;-65
2022/03/29 03:28:59;;;;;;;14.02;12.35;;;;;;;9.74;53.36;94909.38;5135770;28;20197;-65
2022/03/29 03:31:26;;;;;;;14.85;12.30;;;;;;;9.69;53.04;94915.13;5136035;28;20195;-65
2022/03/29 03:33:53;;;;;;;15.93;12.68;;;;;;;9.66;53.44;94910.34;5135633;28;20227;-64
2022/03/29 03:36:20;;;;;;;14.70;13.10;;;;;;;9.64;53.41;94913.41;5118190;28;20195;-64
2022/03/29 03:38:49;;;;;;;15.63;13.23;;;;;;;9.51;53.79;94902.78;5136009;28;20187;-64
2022/03/29 03:41:16;;;;;;;15.32;13.18;;;;;;;9.45;54.09;94907.75;5135933;28;20207;-64
2022/03/29 03:43:43;;;;;;;15.48;13.88;;;;;;;9.39;54.22;94909.16;5117991;28;20603;-65
2022/03/29 03:46:09;;;;;;;15.23;13.63;;;;;;;9.39;53.90;94907.19;5135626;28;20666;-65
2022/03/29 03:48:36;;;;;;;15.30;13.70;;;;;;;9.40;54.15;94910.75;5136106;28;20241;-65
2022/03/29 03:51:03;;;;;;;15.80;13.55;;;;;;;9.35;53.91;94909.06;5135644;28;20630;-65
2022/03/29 03:53:30;;;;;;;15.23;13.60;;;;;;;9.30;54.13;94912.06;5117697;28;20206;-64
2022/03/29 03:55:59;;;;;;;16.65;13.43;;;;;;;9.32;53.85;94906.19;5134968;28;20198;-65
2022/03/29 03:58:26;;;;;;;17.20;14.85;;;;;;;9.28;53.97;94908.84;5135109;28;20226;-65
2022/03/29 04:00:52;;;;;;;14.75;13.27;;;;;;;9.27;55.14;94904.50;5135669;28;20203;-66
2022/03/29 04:03:19;;;;;;;18.10;15.10;;;;;;;9.26;54.00;94913.09;5133968;28;20425;-67
2022/03/29 04:05:46;;;;;;;15.85;14.15;;;;;;;9.21;54.19;94899.56;5134518;28;20458;-66
2022/03/29 04:08:13;;;;;;;15.75;13.63;;;;;;;9.22;54.35;94915.72;5146831;27;20290;-69
2022/03/29 04:10:41;;;;;;;18.23;14.88;;;;;;;9.30;53.54;94909.31;5156522;27;20194;-67
2022/03/29 04:13:09;;;;;;;17.65;15.00;;;;;;;9.24;53.84;94905.19;5138224;27;20198;-66
2022/03/29 04:15:37;;;;;;;19.58;15.45;;;;;;;9.16;54.03;94912.44;5156489;27;20229;-67
2022/03/29 04:18:04;;;;;;;22.15;16.40;;;;;;;9.14;54.65;94909.22;5137614;27;20429;-66
2022/03/29 04:20:30;;;;;;;24.27;21.85;;;;;;;9.21;54.13;94910.59;5137354;27;20424;-66
2022/03/29 04:22:57;;;;;;;25.67;22.73;;;;;;;9.10;54.91;94908.31;5156370;27;20186;-67
2022/03/29 04:25:24;;;;;;;26.20;23.00;;;;;;;9.09;54.58;94916.91;5138556;27;20205;-67
2022/03/29 04:27:51;;;;;;;24.77;21.60;;;;;;;9.09;55.56;94905.91;5141794;27;20229;-66
2022/03/29 04:30:19;;;;;;;27.52;23.60;;;;;;;9.12;55.56;94911.53;5160277;27;20178;-66
2022/03/29 04:32:46;;;;;;;25.35;22.52;;;;;;;9.17;55.38;94915.97;5160494;27;20198;-66
2022/03/29 04:35:13;;;;;;;26.55;22.25;;;;;;;9.24;55.66;94902.44;5141467;27;20238;-66
2022/03/29 04:37:40;;;;;;;27.35;23.73;;;;;;;9.27;55.85;94907.25;5141738;27;20197;-66
2022/03/29 04:40:09;;;;;;;27.10;21.30;;;;;;;9.30;54.89;94911.25;5159682;27;20222;-66
2022/03/29 04:42:45;;;;;;;23.02;20.67;;;;;;;9.41;54.98;94909.63;5141835;27;20194;-66
2022/03/29 04:45:13;;;;;;;25.27;22.05;;;;;;;9.37;54.95;94904.00;5141951;27;20278;-66
2022/03/29 04:47:41;;;;;;;24.33;21.73;;;;;;;9.39;55.01;94909.16;5141542;27;20194;-66
2022/03/29 04:50:09;;;;;;;23.92;21.05;;;;;;;9.44;55.26;94900.66;5159439;27;20198;-66
2022/03/29 04:52:37;;;;;;;30.20;23.13;;;;;;;9.45;54.82;94899.50;5159399;27;20182;-66
2022/03/29 04:55:06;;;;;;;25.77;21.55;;;;;;;9.45;55.31;94901.47;5141429;27;20278;-66
2022/03/29 04:57:32;;;;;;;24.38;20.50;;;;;;;9.49;54.78;94900.41;5141644;27;20198;-66
2022/03/29 05:00:00;;;;;;;22.25;19.90;;;;;;;9.54;54.87;94900.16;5159596;27;20281;-66
2022/03/29 05:02:26;;;;;;;23.27;20.67;;;;;;;9.43;54.38;94901.00;5141674;27;20292;-66
2022/03/29 05:04:55;;;;;;;23.95;20.10;;;;;;;9.36;55.08;94901.59;5159200;27;20225;-65
2022/03/29 05:07:23;;;;;;;24.75;22.13;;;;;;;9.38;55.64;94913.88;5158954;27;20226;-64
2022/03/29 05:09:50;;;;;;;31.63;27.98;;;;;;;9.47;55.31;94908.19;5159648;27;20246;-64
2022/03/29 05:12:17;;;;;;;32.30;28.90;;;;;;;9.53;55.12;94903.25;5159510;27;20210;-64
2022/03/29 05:14:44;;;;;;;33.78;30.08;;;;;;;9.48;55.01;94907.06;5141714;27;20275;-63
2022/03/29 05:17:11;;;;;;;33.40;29.95;;;;;;;9.51;54.82;94911.06;5140921;27;20195;-64
2022/03/29 05:19:38;;;;;;;30.75;27.65;;;;;;;9.48;54.66;94904.31;5159148;27;20209;-64
2022/03/29 05:22:06;;;;;;;30.50;27.33;;;;;;;9.51;55.64;94909.09;5159360;27;20186;-64
2022/03/29 05:24:34;;;;;;;28.55;25.48;;;;;;;9.50;55.06;94902.00;5159373;27;20223;-63
2022/03/29 05:27:00;;;;;;;30.15;24.65;;;;;;;9.52;55.96;94905.22;5159061;27;20203;-63
2022/03/29 05:29:29;;;;;;;32.75;27.02;;;;;;;9.58;55.38;94903.00;5159169;27;20209;-64
2022/03/29 05:31:57;;;;;;;30.30;25.13;;;;;;;9.65;54.59;94901.25;5140853;27;20225;-64
2022/03/29 05:34:23;;;;;;;26.75;23.30;;;;;;;9.75;54.70;94904.66;5141027;27;20633;-64
2022/03/29 05:36:50;;;;;;;29.23;23.65;;;;;;;9.80;54.66;94912.66;5158737;27;20193;-64
2022/03/29 05:39:19;;;;;;;27.83;23.30;;;;;;;9.83;54.49;94909.19;5140224;27;20617;-64
2022/03/29 05:41:46;;;;;;;24.65;21.40;;;;;;;9.93;54.27;94903.19;5140351;27;20186;-64
2022/03/29 05:44:12;;;;;;;27.77;22.50;;;;;;;10.00;54.97;94910.84;5158980;27;20258;-64
2022/03/29 05:49:26;;;;;;;26.02;21.85;;;;;;;10.04;54.89;94906.22;5158618;27;20215;-64
2022/03/29 05:51:53;;;;;;;27.50;21.98;;;;;;;10.14;54.32;94897.44;5158280;27;20206;-63
2022/03/29 05:54:21;;;;;;;27.05;23.02;;;;;;;10.16;53.55;94917.16;5140348;27;20253;-64
2022/03/29 05:56:49;;;;;;;26.15;21.40;;;;;;;10.21;52.94;94891.31;5140945;27;20198;-63
2022/03/29 05:59:16;;;;;;;25.60;20.27;;;;;;;10.30;53.78;94900.22;5140088;27;20186;-63
2022/03/29 06:01:43;;;;;;;21.88;18.10;;;;;;;10.39;52.94;94895.34;5158116;27;20489;-63
2022/03/29 06:04:10;;;;;;;23.15;19.58;;;;;;;10.44;53.11;94905.31;5140072;27;20637;-64
2022/03/29 06:06:38;;;;;;;19.90;17.80;;;;;;;10.47;51.82;94897.13;5158437;27;20186;-64
2022/03/29 06:09:05;;;;;;;18.85;16.85;;;;;;;10.52;52.69;94907.09;5136622;27;20231;-64
2022/03/29 06:11:34;;;;;;;22.42;17.48;;;;;;;10.58;52.14;94903.69;5137976;27;20198;-64
2022/03/29 06:14:02;;;;;;;18.48;16.48;;;;;;;10.66;52.51;94907.44;5136538;27;20470;-64
2022/03/29 06:16:29;;;;;;;19.30;16.50;;;;;;;10.73;51.95;94901.28;5118372;27;20505;-64
2022/03/29 06:18:56;;;;;;;21.63;16.88;;;;;;;10.76;52.50;94895.84;5137064;27;20187;-64
2022/03/29 06:21:24;;;;;;;16.67;14.88;;;;;;;10.80;52.10;94891.22;5136689;27;20199;-65
2022/03/29 06:23:51;;;;;;;20.45;15.07;;;;;;;10.83;51.77;94896.03;5138142;27;20525;-65
2022/03/29 06:26:18;;;;;;;16.77;15.05;;;;;;;10.90;51.77;94884.34;5137155;27;20751;-64
2022/03/29 06:28:47;;;;;;;16.52;14.43;;;;;;;10.99;50.48;94895.97;5136844;27;20198;-65
2022/03/29 06:31:13;;;;;;;15.80;13.95;;;;;;;11.08;50.86;94884.75;5136375;27;20203;-64
2022/03/29 06:33:40;;;;;;;15.52;13.98;;;;;;;11.07;49.92;94885.91;5136867;27;20179;-64
2022/03/29 06:36:07;;;;;;;15.07;13.57;;;;;;;11.12;50.32;94888.41;5136349;27;20219;-64
2022/03/29 06:38:34;;;;;;;15.57;14.07;;;;;;;11.16;49.15;94886.50;5137285;27;20221;-64
2022/03/29 06:41:01;;;;;;;16.00;14.27;;;;;;;11.16;49.96;94888.47;5137035;27;20621;-65
2022/03/29 06:43:28;;;;;;;18.92;14.18;;;;;;;11.23;49.95;94875.63;5119129;27;20202;-65
2022/03/29 06:45:56;;;;;;;18.17;14.70;;;;;;;11.30;50.24;94881.31;5119108;27;20198;-65
2022/03/29 06:48:23;;;;;;;17.60;14.98;;;;;;;11.35;50.03;94888.50;5118778;27;20191;-64
2022/03/29 06:50:51;;;;;;;16.88;15.10;;;;;;;11.42;49.75;94890.59;5136170;27;20410;-64
2022/03/29 06:53:18;;;;;;;16.85;14.02;;;;;;;11.44;49.02;94869.75;5135624;27;20202;-65
2022/03/29 06:55:44;;;;;;;15.38;13.10;;;;;;;11.40;48.92;94887.41;5135508;27;20259;-65
2022/03/29 06:58:11;;;;;;;14.88;13.20;;;;;;;11.48;48.75;94869.84;5135899;27;20199;-65
2022/03/29 07:00:39;;;;;;;15.63;13.85;;;;;;;11.53;48.69;94880.56;5136029;27;20203;-65
2022/03/29 07:03:08;;;;;;;14.50;13.10;;;;;;;11.62;49.00;94880.34;5136799;27;20187;-65
2022/03/29 07:05:38;;;;;;;15.15;12.48;;;;;;;11.69;48.39;94856.44;5135742;27;20191;-64
2022/03/29 07:08:05;;;;;;;12.32;8.20;;;;;;;11.81;47.13;94855.47;5135451;27;20658;-64
2022/03/29 07:13:17;;;;;;;11.13;9.35;;;;;;;12.06;47.86;94867.03;5135918;27;20274;-65
2022/03/29 07:15:44;;;;;;;13.20;9.40;;;;;;;12.13;46.85;94864.41;5135381;27;20218;-64
2022/03/29 07:18:13;;;;;;;11.98;8.80;;;;;;;12.19;45.28;94864.88;5135991;27;20458;-64
2022/03/29 07:20:39;;;;;;;6.90;5.65;;;;;;;12.22;44.84;94858.63;5136177;27;20211;-64
2022/03/29 07:23:06;;;;;;;9.88;5.85;;;;;;;12.32;44.24;94869.06;5135394;27;20544;-64
2022/03/29 07:25:33;;;;;;;9.27;5.47;;;;;;;12.37;44.28;94862.41;5135577;27;20195;-64
2022/03/29 07:28:01;;;;;;;7.93;5.60;;;;;;;12.37;43.93;94870.72;5136219;28;20207;-64
2022/03/29 07:30:28;;;;;;;10.18;6.00;;;;;;;12.38;43.34;94856.53;5136401;28;20203;-64
2022/03/29 07:32:57;;;;;;;10.60;5.82;;;;;;;12.44;43.87;94862.53;5135694;28;20209;-64
2022/03/29 07:35:28;;;;;;;8.50;5.35;;;;;;;12.50;43.45;94853.56;5135710;28;20207;-64
2022/03/29 07:37:55;;;;;;;9.35;5.72;;;;;;;12.45;43.49;94864.94;5135501;28;20226;-64
2022/03/29 07:40:24;;;;;;;8.30;5.97;;;;;;;12.45;43.29;94855.84;5135900;28;20598;-64
2022/03/29 07:42:51;;;;;;;11.32;6.22;;;;;;;12.50;43.12;94874.91;5136352;28;20218;-64
2022/03/29 07:45:19;;;;;;;8.97;5.87;;;;;;;12.48;43.17;94868.94;5136207;28;20455;-65
2022/03/29 07:47:48;;;;;;;10.25;5.82;;;;;;;12.51;44.02;94857.91;5135724;28;20835;-65
2022/03/29 07:50:15;;;;;;;9.48;5.72;;;;;;;12.57;43.14;94850.13;5136863;27;20607;-65
2022/03/29 07:52:44;;;;;;;8.52;6.00;;;;;;;12.66;43.49;94844.31;5119134;28;20191;-65
2022/03/29 07:55:12;;;;;;;9.85;6.00;;;;;;;12.72;43.06;94856.69;5136023;28;20713;-65
2022/03/29 07:57:40;;;;;;;10.38;5.70;;;;;;;12.70;41.75;94879.16;5135515;28;20234;-65
2022/03/29 08:02:50;;;;;;;9.07;5.60;;;;;;;12.68;42.47;94853.06;5138162;27;20289;-65
2022/03/29 08:05:17;;;;;;;10.98;5.57;;;;;;;12.75;42.13;94847.63;5140285;27;20218;-64
2022/03/29 08:07:45;;;;;;;8.30;5.90;;;;;;;12.81;42.18;94848.09;5138773;27;20239;-65
2022/03/29 08:10:12;;;;;;;10.55;5.30;;;;;;;12.79;42.59;94842.16;5140401;27;20218;-64
2022/03/29 08:12:40;;;;;;;9.63;5.05;;;;;;;12.85;42.61;94838.66;5140173;27;20237;-64
2022/03/29 08:15:08;;;;;;;9.10;5.60;;;;;;;12.99;42.01;94847.19;5139610;27;20203;-65
2022/03/29 08:17:35;;;;;;;9.88;5.75;;;;;;;13.07;41.65;94838.97;5138916;27;20233;-64
2022/03/29 08:20:04;;;;;;;7.65;5.68;;;;;;;13.10;41.86;94827.16;5139299;27;20194;-64
2022/03/29 08:22:32;;;;;;;9.60;5.60;;;;;;;13.19;41.86;94824.91;5139044;27;20607;-64
2022/03/29 08:25:00;;;;;;;10.70;5.72;;;;;;;13.35;42.85;94833.06;5140241;27;20195;-64
2022/03/29 08:27:28;;;;;;;9.88;6.20;;;;;;;13.52;41.58;94818.63;5138841;27;20201;-64
2022/03/29 08:29:54;;;;;;;10.48;6.05;;;;;;;13.65;41.56;94810.84;5140056;27;20194;-64
2022/03/29 08:32:21;;;;;;;8.45;6.47;;;;;;;13.78;41.01;94814.97;5139137;27;20495;-65
2022/03/29 08:34:48;;;;;;;10.88;6.03;;;;;;;13.86;40.39;94810.28;5138612;27;20430;-64
2022/03/29 08:37:15;;;;;;;8.95;5.60;;;;;;;13.90;40.56;94800.81;5138765;27;20201;-64
2022/03/29 08:39:42;;;;;;;9.27;5.63;;;;;;;13.94;40.30;94795.31;5138999;27;20233;-64
2022/03/29 08:42:14;;;;;;;11.55;6.47;;;;;;;14.01;40.58;94789.06;5139561;27;20191;-64
2022/03/29 08:44:41;;;;;;;9.65;6.32;;;;;;;14.06;39.96;94788.72;5139960;27;20186;-64
2022/03/29 08:47:08;;;;;;;8.82;5.78;;;;;;;14.09;39.20;94799.03;5121274;27;20205;-64
2022/03/29 08:49:36;;;;;;;7.65;6.35;;;;;;;14.10;39.39;94797.88;5139468;27;20187;-64
2022/03/29 08:52:03;;;;;;;10.13;6.32;;;;;;;14.10;39.36;94768.16;5138364;27;20266;-64
2022/03/29 08:54:32;;;;;;;6.30;5.70;;;;;;;14.21;38.77;94787.66;5138642;27;20594;-64
2022/03/29 08:56:59;;;;;;;8.95;6.38;;;;;;;14.17;39.22;94784.84;5139142;27;20699;-64
2022/03/29 08:59:27;;;;;;;8.45;6.32;;;;;;;14.23;39.45;94787.25;5139282;27;20211;-63
2022/03/29 09:01:56;;;;;;;8.30;6.78;;;;;;;14.31;39.41;94769.53;5138790;27;20191;-64
2022/03/29 09:04:42;;;;;;;7.05;6.15;;;;;;;14.38;39.04;94777.91;5138796;27;20630;-63
2022/03/29 09:07:09;;;;;;;9.30;6.22;;;;;;;14.45;39.15;94769.59;5140231;27;20211;-63
2022/03/29 09:09:38;;;;;;;8.25;6.05;;;;;;;14.58;39.34;94756.25;5159855;27;20198;-63
2022/03/29 09:12:13;;;;;;;8.77;6.90;;;;;;;14.79;38.76;94759.19;5141511;27;20186;-63
2022/03/29 09:14:57;;;;;;;9.85;6.05;;;;;;;14.94;38.61;94746.16;5141314;27;20250;-64
2022/03/29 09:17:30;;;;;;;8.30;6.68;;;;;;;15.10;38.25;94766.06;5142209;27;20302;-64
2022/03/29 09:19:57;;;;;;;7.65;5.75;;;;;;;15.18;37.49;94750.28;5159972;27;20198;-65
2022/03/29 09:22:35;;;;;;;9.00;6.22;;;;;;;15.22;36.86;94747.50;5141487;27;20217;-64
2022/03/29 09:25:03;;;;;;;8.15;6.40;;;;;;;15.24;36.81;94731.22;5159020;27;20433;-64
2022/03/29 09:27:30;;;;;;;8.43;6.13;;;;;;;15.28;36.34;94740.38;5158985;27;20247;-64
2022/03/29 09:30:09;;;;;;;10.50;6.55;;;;;;;15.28;36.94;94738.38;5141331;27;20183;-65
2022/03/29 09:32:43;;;;;;;8.57;6.13;;;;;;;15.30;36.36;94730.47;5159142;27;20228;-65
2022/03/29 09:35:14;;;;;;;10.35;6.00;;;;;;;15.39;36.80;94716.19;5139746;27;20260;-64
2022/03/29 09:37:44;;;;;;;8.93;6.10;;;;;;;15.46;36.53;94743.22;5159329;27;20186;-66
2022/03/29 09:40:12;;;;;;;8.77;6.07;;;;;;;15.45;36.87;94717.41;5141733;27;20194;-66
2022/03/29 09:42:40;;;;;;;6.90;5.57;;;;;;;15.50;36.29;94710.66;5159199;27;20187;-64
2022/03/29 09:45:10;;;;;;;7.45;5.63;;;;;;;15.58;36.21;94715.06;5159132;27;20269;-64
2022/03/29 09:47:37;;;;;;;8.13;5.93;;;;;;;15.75;36.30;94711.53;5140958;27;20202;-66
2022/03/29 09:50:06;;;;;;;10.57;6.05;;;;;;;15.82;36.38;94711.56;5140466;27;20209;-64
2022/03/29 09:52:37;;;;;;;11.75;6.28;;;;;;;15.96;36.05;94713.56;5140771;27;20289;-64
2022/03/29 09:55:13;;;;;;;7.55;5.80;;;;;;;16.06;35.52;94726.69;5158845;27;20178;-64
2022/03/29 09:57:42;;;;;;;7.68;6.00;;;;;;;16.05;35.04;94710.38;5158797;27;20190;-63
2022/03/29 10:00:12;;;;;;;7.72;6.00;;;;;;;16.10;35.40;94704.44;5140534;27;20190;-63
2022/03/29 10:02:41;;;;;;;8.57;6.50;;;;;;;16.21;34.98;94688.53;5158503;27;20433;-63
2022/03/29 10:05:10;;;;;;;8.05;6.25;;;;;;;16.31;34.59;94684.16;5139791;27;20470;-63
2022/03/29 10:07:42;;;;;;;9.20;5.87;;;;;;;16.41;34.90;94685.31;5135394;27;20470;-64
2022/03/29 10:10:10;;;;;;;8.30;6.57;;;;;;;16.49;34.67;94696.06;5138039;27;20215;-64
2022/03/29 10:12:38;;;;;;;9.13;6.40;;;;;;;16.55;34.65;94690.88;5136957;27;20210;-64
2022/03/29 10:15:06;;;;;;;10.52;6.13;;;;;;;16.57;34.64;94671.78;5137351;27;20214;-64
2022/03/29 10:17:34;;;;;;;9.38;6.65;;;;;;;16.70;33.69;94681.28;5137812;27;20183;-64
2022/03/29 10:20:02;;;;;;;8.82;5.93;;;;;;;16.69;34.12;94665.00;5136636;27;20191;-64
2022/03/29 10:22:29;;;;;;;8.05;6.15;;;;;;;16.82;34.62;94680.09;5137063;27;20203;-64
2022/03/29 10:24:55;;;;;;;7.78;5.45;;;;;;;16.93;33.93;94660.56;5136925;27;20179;-64
2022/03/29 10:27:23;;;;;;;6.65;5.95;;;;;;;17.12;33.25;94662.09;5136584;27;20195;-64
2022/03/29 10:29:49;;;;;;;9.63;5.85;;;;;;;17.25;33.17;94663.22;5137295;27;20218;-64
2022/03/29 10:32:29;;;;;;;8.85;5.80;;;;;;;17.33;32.21;94671.13;5136358;27;20198;-63
2022/03/29 10:35:18;;;;;;;8.18;5.55;;;;;;;17.44;32.88;94659.94;5136147;27;20206;-63
2022/03/29 10:37:53;;;;;;;11.57;6.07;;;;;;;17.48;31.39;94657.13;5128640;27;20222;-64
2022/03/29 10:40:41;;;;;;;11.25;6.28;;;;;;;17.54;31.56;94661.88;5136591;27;20195;-64
2022/03/29 10:43:27;;;;;;;6.97;5.30;;;;;;;17.51;31.40;94648.75;5136629;27;20191;-64
2022/03/29 10:45:54;;;;;;;7.15;5.47;;;;;;;17.56;31.99;94634.34;5136690;27;20295;-65
2022/03/29 10:48:21;;;;;;;8.90;6.30;;;;;;;17.74;31.90;94636.22;5136449;27;20199;-65
2022/03/29 10:50:58;;;;;;;10.48;6.25;;;;;;;17.83;31.71;94638.56;5136739;27;20241;-65
2022/03/29 10:53:27;;;;;;;6.15;5.25;;;;;;;17.99;31.74;94627.69;5137601;27;20175;-64
2022/03/29 10:56:22;;;;;;;9.90;5.57;;;;;;;18.09;31.26;94624.03;5137037;27;20249;-64
2022/03/29 10:59:11;;;;;;;10.25;5.82;;;;;;;18.26;31.19;94628.66;5136950;27;20724;-66
2022/03/29 11:01:40;;;;;;;10.20;5.85;;;;;;;18.35;30.28;94619.78;5136590;27;20191;-65
2022/03/29 11:04:14;;;;;;;8.45;5.88;;;;;;;18.45;30.64;94610.53;5137094;27;20553;-65
2022/03/29 11:07:14;;;;;;;8.43;6.40;;;;;;;18.36;30.55;94604.63;5137117;27;20203;-64
2022/03/29 11:09:44;;;;;;;9.82;5.80;;;;;;;18.20;30.58;94618.34;5116624;28;20600;-64
2022/03/29 11:12:39;;;;;;;9.55;6.35;;;;;;;18.16;30.95;94610.00;5116420;28;20179;-64
2022/03/29 11:15:48;;;;;;;8.55;5.53;;;;;;;18.32;31.25;94594.72;5115752;28;20187;-65
2022/03/29 11:18:43;;;;;;;8.68;6.70;;;;;;;18.25;30.57;94601.94;5116391;28;20198;-64
2022/03/29 11:21:10;;;;;;;7.28;5.78;;;;;;;18.24;30.91;94585.63;5115853;28;20223;-64
2022/03/29 11:23:40;;;;;;;8.63;5.75;;;;;;;18.32;30.55;94575.16;5116214;28;20600;-64
2022/03/29 11:26:12;;;;;;;11.95;6.03;;;;;;;18.41;30.41;94589.41;5115919;28;20203;-65
2022/03/29 11:28:47;;;;;;;8.20;6.28;;;;;;;18.25;30.28;94587.97;5116158;28;20222;-65
2022/03/29 11:31:14;;;;;;;8.80;6.28;;;;;;;18.19;29.98;94572.09;5115745;28;20211;-66
2022/03/29 11:33:41;;;;;;;10.05;5.97;;;;;;;18.14;30.06;94564.19;5116101;28;20202;-65
2022/03/29 11:36:10;;;;;;;11.60;6.07;;;;;;;18.18;30.36;94576.09;5118518;28;20246;-65
2022/03/29 11:38:39;;;;;;;7.03;5.40;;;;;;;18.36;30.25;94556.38;5122350;28;20219;-64
2022/03/29 11:41:06;;;;;;;7.45;5.63;;;;;;;18.57;30.25;94553.34;5121235;28;20209;-64
2022/03/29 11:43:33;;;;;;;8.15;5.85;;;;;;;18.72;30.27;94543.59;5120982;28;20196;-64
2022/03/29 11:46:00;;;;;;;9.77;5.85;;;;;;;18.87;29.44;94549.78;5119901;28;20202;-65